Time;durP1;ratioP1;P1;durP2;ratioP2;P2;SDS_P1;SDS_P2;PMS_P1;PMS_P2;Temp;Humidity;BMP_temperature;BMP_pressure;BME280_temperature;BME280_humidity;BME280_pressure;Samples;Min_cycle;Max_cycle;Signal;HPM_P1;HPM_P2
2023/03/24 00:01:50;;;;;;;6.72;3.08;;;11.20;99.90;;;;;;5000427;28;20686;-69
2023/03/24 00:04:17;;;;;;;4.18;2.47;;;11.20;99.90;;;;;;5021026;28;20198;-69
2023/03/24 00:06:48;;;;;;;4.10;2.80;;;11.20;99.90;;;;;;5021362;28;20194;-69
2023/03/24 00:09:15;;;;;;;7.20;2.85;;;11.20;99.90;;;;;;5017660;28;20202;-69
2023/03/24 00:11:41;;;;;;;11.13;3.08;;;11.20;99.90;;;;;;4987294;28;20275;-69
2023/03/24 00:14:11;;;;;;;8.63;3.58;;;11.10;99.90;;;;;;5009884;28;20775;-69
2023/03/24 00:16:41;;;;;;;5.35;2.90;;;11.20;99.90;;;;;;5019522;28;20209;-69
2023/03/24 00:19:08;;;;;;;4.35;2.72;;;11.20;99.90;;;;;;5007608;28;20745;-69
2023/03/24 00:21:36;;;;;;;3.92;2.65;;;11.20;99.90;;;;;;5023141;28;20610;-69
2023/03/24 00:24:04;;;;;;;5.75;2.70;;;11.10;99.90;;;;;;5013453;28;20194;-69
2023/03/24 00:26:31;;;;;;;8.45;2.97;;;11.10;99.90;;;;;;4985828;28;20205;-69
2023/03/24 00:28:59;;;;;;;6.93;2.50;;;11.10;99.90;;;;;;4999990;28;20208;-69
2023/03/24 00:31:27;;;;;;;3.83;2.47;;;11.10;99.90;;;;;;5015469;28;20228;-69
2023/03/24 00:33:54;;;;;;;4.28;2.80;;;11.10;99.90;;;;;;4994265;28;20985;-69
2023/03/24 00:36:23;;;;;;;4.68;2.25;;;11.10;99.90;;;;;;5020689;28;20194;-69
2023/03/24 00:38:50;;;;;;;5.45;2.63;;;11.00;99.90;;;;;;5005500;28;20664;-69
2023/03/24 00:41:18;;;;;;;6.10;3.13;;;11.10;99.90;;;;;;4983661;28;20604;-69
2023/03/24 00:43:45;;;;;;;4.57;2.75;;;11.00;99.90;;;;;;5015131;28;20198;-69
2023/03/24 00:46:27;;;;;;;6.28;3.22;;;11.00;99.90;;;;;;4999881;28;20293;-69
2023/03/24 00:49:01;;;;;;;5.72;2.67;;;11.00;99.90;;;;;;4996914;28;20315;-69
2023/03/24 00:51:29;;;;;;;4.32;2.90;;;11.00;99.90;;;;;;5002589;28;20206;-69
2023/03/24 00:53:58;;;;;;;6.97;3.00;;;11.00;99.90;;;;;;5015713;28;20791;-69
2023/03/24 00:56:26;;;;;;;3.03;2.35;;;11.00;99.90;;;;;;4988330;28;20229;-69
2023/03/24 00:58:56;;;;;;;4.68;2.60;;;11.00;99.90;;;;;;5016466;28;20197;-69
2023/03/24 01:01:24;;;;;;;5.07;2.72;;;11.00;99.90;;;;;;4992867;28;20230;-69
2023/03/24 01:03:51;;;;;;;4.88;2.65;;;11.00;99.90;;;;;;5001192;28;20213;-69
2023/03/24 01:06:22;;;;;;;3.53;2.72;;;10.90;99.90;;;;;;5005527;28;21181;-69
2023/03/24 01:08:52;;;;;;;7.88;2.53;;;11.00;99.90;;;;;;5015665;28;20201;-69
2023/03/24 01:11:21;;;;;;;7.90;3.33;;;10.90;99.90;;;;;;4982467;28;20563;-69
2023/03/24 01:13:48;;;;;;;6.32;3.00;;;10.90;99.90;;;;;;5022097;28;20244;-69
2023/03/24 01:16:16;;;;;;;4.63;2.83;;;10.90;99.90;;;;;;5007612;28;20209;-69
2023/03/24 01:18:43;;;;;;;6.32;3.42;;;10.90;99.90;;;;;;5001263;28;20194;-69
2023/03/24 01:21:11;;;;;;;4.22;2.78;;;10.90;99.90;;;;;;5005378;28;20202;-69
2023/03/24 01:23:40;;;;;;;6.45;3.28;;;10.90;99.90;;;;;;5015533;28;20728;-69
2023/03/24 01:26:09;;;;;;;7.88;2.92;;;10.90;99.90;;;;;;5000997;28;20692;-69
2023/03/24 01:28:39;;;;;;;7.40;2.78;;;10.90;99.90;;;;;;5000799;28;20374;-69
2023/03/24 01:31:07;;;;;;;6.15;3.05;;;10.90;99.90;;;;;;5009546;28;20198;-69
2023/03/24 01:33:34;;;;;;;4.43;2.67;;;11.00;99.90;;;;;;5002503;28;21237;-69
2023/03/24 01:36:01;;;;;;;6.70;2.70;;;11.00;99.90;;;;;;5018063;28;20284;-69
2023/03/24 01:38:28;;;;;;;6.28;2.83;;;11.00;99.90;;;;;;5012978;28;20411;-69
2023/03/24 01:40:57;;;;;;;5.95;3.20;;;11.00;99.90;;;;;;5020438;28;20846;-69
2023/03/24 01:43:26;;;;;;;4.65;3.05;;;11.00;99.90;;;;;;4981441;28;20536;-69
2023/03/24 01:46:00;;;;;;;4.20;3.30;;;11.00;99.90;;;;;;5004218;28;20202;-69
2023/03/24 01:48:31;;;;;;;5.03;2.70;;;11.00;99.90;;;;;;5004317;28;20415;-69
2023/03/24 01:51:01;;;;;;;6.22;2.92;;;11.00;99.90;;;;;;4997987;28;20201;-69
2023/03/24 01:53:30;;;;;;;4.32;2.95;;;11.00;99.90;;;;;;5010788;28;20499;-69
2023/03/24 01:55:59;;;;;;;5.05;3.00;;;11.00;99.90;;;;;;5018749;28;20229;-69
2023/03/24 01:58:29;;;;;;;6.18;3.65;;;11.00;99.90;;;;;;4983216;28;20818;-69
2023/03/24 02:00:57;;;;;;;6.20;3.28;;;11.00;99.90;;;;;;5016847;28;20194;-69
2023/03/24 02:03:26;;;;;;;4.47;3.30;;;11.00;99.90;;;;;;5006784;28;20274;-69
2023/03/24 02:05:56;;;;;;;5.45;3.50;;;11.00;99.90;;;;;;5003584;28;20865;-69
2023/03/24 02:08:28;;;;;;;5.00;2.97;;;11.00;99.90;;;;;;5008881;28;20398;-69
2023/03/24 02:10:56;;;;;;;4.10;3.17;;;11.00;99.90;;;;;;5020204;28;20206;-69
2023/03/24 02:13:25;;;;;;;6.07;3.42;;;11.00;99.90;;;;;;4986681;28;20370;-69
2023/03/24 02:16:08;;;;;;;5.85;3.83;;;11.10;99.90;;;;;;5018664;28;20226;-69
2023/03/24 02:18:43;;;;;;;5.13;3.33;;;11.00;99.90;;;;;;5007534;28;20213;-69
2023/03/24 02:21:45;;;;;;;8.50;3.90;;;11.10;99.90;;;;;;5001196;28;20200;-69
2023/03/24 02:24:40;;;;;;;5.30;3.20;;;11.00;99.90;;;;;;5011629;28;20200;-69
2023/03/24 02:27:18;;;;;;;5.78;4.10;;;11.00;99.90;;;;;;4985271;28;20751;-69
2023/03/24 02:30:18;;;;;;;6.85;4.30;;;11.00;99.90;;;;;;4985891;28;20202;-69
2023/03/24 02:33:15;;;;;;;5.45;3.17;;;11.10;99.90;;;;;;5001261;28;20221;-69
2023/03/24 02:36:14;;;;;;;4.40;3.38;;;11.10;99.90;;;;;;5002400;28;20547;-69
2023/03/24 02:39:27;;;;;;;6.95;4.28;;;11.00;99.90;;;;;;5013001;28;20224;-69
2023/03/24 02:42:02;;;;;;;5.45;4.05;;;11.00;99.90;;;;;;5020069;28;20205;-69
2023/03/24 02:44:35;;;;;;;7.05;4.20;;;11.00;99.90;;;;;;4974853;28;27092;-69
2023/03/24 02:47:08;;;;;;;4.90;3.85;;;11.10;99.90;;;;;;5015601;28;20198;-69
2023/03/24 02:49:44;;;;;;;5.95;4.50;;;11.10;99.90;;;;;;5002076;28;20853;-69
2023/03/24 02:52:18;;;;;;;4.78;3.97;;;11.10;99.90;;;;;;4997783;28;20672;-69
2023/03/24 02:54:49;;;;;;;5.43;4.43;;;11.10;99.90;;;;;;5018007;28;20222;-69
2023/03/24 02:57:23;;;;;;;6.57;4.20;;;11.10;99.90;;;;;;4998149;28;20225;-69
2023/03/24 02:59:57;;;;;;;8.00;3.88;;;11.10;99.90;;;;;;5015245;28;20197;-70
2023/03/24 03:02:29;;;;;;;6.82;4.35;;;11.10;99.90;;;;;;4985143;28;20450;-69
2023/03/24 03:05:02;;;;;;;4.40;4.00;;;11.10;99.90;;;;;;5011490;28;20621;-69
2023/03/24 03:07:36;;;;;;;5.40;4.18;;;11.20;99.90;;;;;;4999427;28;20633;-69
2023/03/24 03:10:12;;;;;;;4.60;4.10;;;11.20;99.90;;;;;;5016183;28;20201;-69
2023/03/24 03:12:41;;;;;;;6.15;3.85;;;11.20;99.90;;;;;;5001694;28;20671;-69
2023/03/24 03:15:12;;;;;;;5.85;3.95;;;11.20;99.90;;;;;;5002576;28;20810;-70
2023/03/24 03:17:43;;;;;;;5.68;4.15;;;11.20;99.90;;;;;;5007470;28;20210;-69
2023/03/24 03:20:13;;;;;;;5.35;4.75;;;11.20;99.90;;;;;;5002997;28;20482;-70
2023/03/24 03:22:45;;;;;;;5.40;4.50;;;11.20;99.90;;;;;;5000467;28;20221;-69
2023/03/24 03:25:19;;;;;;;5.55;4.20;;;11.30;99.90;;;;;;5014552;28;20205;-69
2023/03/24 03:27:46;;;;;;;5.05;4.45;;;11.30;99.90;;;;;;5018285;28;20197;-70
2023/03/24 03:30:18;;;;;;;6.80;4.78;;;11.30;99.90;;;;;;4990691;28;20385;-69
2023/03/24 03:32:53;;;;;;;5.00;4.50;;;11.30;99.90;;;;;;5020087;28;20205;-69
2023/03/24 03:35:23;;;;;;;4.90;4.40;;;11.30;99.90;;;;;;5014183;28;20304;-70
2023/03/24 03:37:58;;;;;;;4.68;4.20;;;11.30;99.90;;;;;;5012878;28;20201;-70
2023/03/24 03:40:32;;;;;;;3.97;3.40;;;11.40;99.90;;;;;;4988420;28;20205;-69
2023/03/24 03:42:59;;;;;;;4.85;3.97;;;11.40;99.90;;;;;;5022392;28;20220;-70
2023/03/24 03:45:26;;;;;;;6.35;4.30;;;11.40;99.90;;;;;;4994334;28;20198;-69
2023/03/24 03:47:53;;;;;;;5.20;4.68;;;11.40;99.90;;;;;;5003055;28;20310;-69
2023/03/24 03:50:20;;;;;;;5.07;3.92;;;11.40;99.90;;;;;;5010435;28;20206;-69
2023/03/24 03:52:48;;;;;;;5.70;4.10;;;11.40;99.90;;;;;;5015597;28;20418;-70
2023/03/24 03:55:15;;;;;;;4.72;4.20;;;11.40;99.90;;;;;;5001583;28;22156;-69
2023/03/24 03:57:44;;;;;;;4.97;3.85;;;11.50;99.90;;;;;;5012444;28;20347;-70
2023/03/24 04:00:15;;;;;;;4.90;4.03;;;11.50;99.90;;;;;;5027643;28;20202;-69
2023/03/24 04:02:58;;;;;;;5.35;4.15;;;11.50;99.90;;;;;;4983046;28;20407;-69
2023/03/24 04:05:29;;;;;;;5.05;4.10;;;11.50;99.90;;;;;;5011947;28;20668;-69
2023/03/24 04:08:20;;;;;;;4.68;4.10;;;11.50;99.90;;;;;;5008299;28;20272;-70
2023/03/24 04:11:24;;;;;;;6.45;4.40;;;11.50;99.90;;;;;;5000272;28;20288;-70
2023/03/24 04:14:04;;;;;;;4.90;4.30;;;11.50;99.90;;;;;;5020205;28;20228;-70
2023/03/24 04:16:41;;;;;;;7.32;4.47;;;11.60;99.90;;;;;;4986690;28;20229;-69
2023/03/24 04:19:29;;;;;;;5.82;4.20;;;11.50;99.90;;;;;;5009712;28;20201;-70
2023/03/24 04:22:12;;;;;;;6.53;4.90;;;11.60;99.90;;;;;;5013387;28;20206;-69
2023/03/24 04:24:48;;;;;;;5.72;4.35;;;11.50;99.90;;;;;;5002924;28;20577;-70
2023/03/24 04:27:26;;;;;;;4.38;3.85;;;11.60;99.90;;;;;;4999215;28;23324;-70
2023/03/24 04:30:03;;;;;;;4.85;4.35;;;11.60;99.90;;;;;;5009800;28;20202;-69
2023/03/24 04:32:35;;;;;;;4.82;4.20;;;11.60;99.90;;;;;;4982146;28;20578;-69
2023/03/24 04:35:07;;;;;;;5.45;4.18;;;11.60;99.90;;;;;;4995413;28;20439;-70
2023/03/24 04:37:37;;;;;;;5.50;3.92;;;11.60;99.90;;;;;;5010728;28;20639;-69
2023/03/24 04:40:09;;;;;;;5.10;4.60;;;11.60;99.90;;;;;;4994325;28;20754;-70
2023/03/24 04:42:39;;;;;;;5.32;4.15;;;11.60;99.90;;;;;;5019839;28;20212;-69
2023/03/24 04:45:09;;;;;;;5.55;4.95;;;11.60;99.90;;;;;;5015135;28;20803;-70
2023/03/24 04:47:41;;;;;;;5.00;4.43;;;11.70;99.90;;;;;;5022048;28;20201;-70
2023/03/24 04:50:11;;;;;;;6.60;4.40;;;11.70;99.90;;;;;;4972280;28;20206;-70
2023/03/24 04:52:38;;;;;;;5.07;4.38;;;11.70;99.90;;;;;;5008658;28;20202;-70
2023/03/24 04:55:26;;;;;;;4.28;3.88;;;11.70;99.90;;;;;;5004872;28;20882;-70
2023/03/24 04:57:53;;;;;;;4.53;4.13;;;11.70;99.90;;;;;;4997978;28;20226;-69
2023/03/24 05:00:21;;;;;;;5.63;4.80;;;11.70;99.90;;;;;;5011220;28;20578;-70
2023/03/24 05:02:48;;;;;;;4.50;4.10;;;11.70;99.90;;;;;;4976548;28;21027;-70
2023/03/24 05:05:16;;;;;;;5.60;4.30;;;11.70;99.90;;;;;;4988949;28;20287;-69
2023/03/24 05:07:42;;;;;;;4.32;3.88;;;11.70;99.90;;;;;;5003014;28;20337;-69
2023/03/24 05:10:10;;;;;;;4.75;4.30;;;11.70;99.90;;;;;;4991604;28;20696;-70
2023/03/24 05:12:37;;;;;;;4.88;3.90;;;11.70;99.90;;;;;;4995286;28;26303;-70
2023/03/24 05:15:05;;;;;;;4.40;4.00;;;11.80;99.90;;;;;;5002535;28;20205;-69
2023/03/24 05:17:33;;;;;;;4.03;3.63;;;11.80;99.90;;;;;;5017625;28;20202;-69
2023/03/24 05:20:00;;;;;;;4.65;3.97;;;11.80;99.90;;;;;;4964779;28;20725;-70
2023/03/24 05:22:27;;;;;;;3.97;3.63;;;11.80;99.90;;;;;;5005972;28;20282;-69
2023/03/24 05:24:54;;;;;;;6.45;4.05;;;11.80;99.90;;;;;;5003262;28;20208;-70
2023/03/24 05:27:21;;;;;;;3.95;3.58;;;11.80;99.90;;;;;;5006104;28;20331;-69
2023/03/24 05:29:47;;;;;;;4.30;3.90;;;11.90;99.90;;;;;;4991669;28;20682;-70
2023/03/24 05:32:14;;;;;;;4.03;3.63;;;11.90;99.90;;;;;;5013494;28;20763;-69
2023/03/24 05:34:42;;;;;;;3.63;3.33;;;11.90;99.90;;;;;;4975437;28;20225;-70
2023/03/24 05:37:11;;;;;;;3.75;3.45;;;11.90;99.90;;;;;;4996669;28;20275;-70
2023/03/24 05:39:38;;;;;;;3.97;3.67;;;11.90;99.90;;;;;;5012399;28;20234;-70
2023/03/24 05:42:05;;;;;;;3.72;3.40;;;11.90;99.90;;;;;;5003552;28;20221;-70
2023/03/24 05:44:32;;;;;;;2.97;2.78;;;11.90;99.90;;;;;;4998744;28;20803;-69
2023/03/24 05:46:59;;;;;;;3.95;2.50;;;11.90;99.90;;;;;;5006082;28;20360;-70
2023/03/24 05:49:26;;;;;;;2.88;1.88;;;11.90;99.90;;;;;;4981468;28;20240;-69
2023/03/24 05:51:54;;;;;;;1.90;1.52;;;11.80;99.90;;;;;;5010139;28;20234;-69
2023/03/24 05:54:22;;;;;;;1.85;1.60;;;11.80;99.90;;;;;;5012059;28;20206;-69
2023/03/24 05:56:50;;;;;;;2.95;1.50;;;11.70;99.90;;;;;;5010571;28;20866;-70
2023/03/24 05:59:17;;;;;;;2.33;1.42;;;11.80;99.90;;;;;;5005010;28;20304;-70
2023/03/24 06:01:44;;;;;;;2.50;1.42;;;11.50;99.90;;;;;;5006705;28;20229;-70
2023/03/24 06:04:12;;;;;;;2.45;1.08;;;11.40;99.90;;;;;;4968778;28;20216;-70
2023/03/24 06:06:39;;;;;;;1.20;1.08;;;11.40;99.90;;;;;;5012221;28;20223;-69
2023/03/24 06:09:07;;;;;;;2.90;1.27;;;11.40;99.90;;;;;;4995324;28;20714;-70
2023/03/24 06:11:34;;;;;;;6.28;1.25;;;11.30;99.90;;;;;;5009352;28;20194;-69
2023/03/24 06:14:01;;;;;;;3.72;1.30;;;11.30;99.90;;;;;;5004270;28;20201;-70
2023/03/24 06:16:28;;;;;;;4.25;1.35;;;11.30;99.90;;;;;;4996923;28;20262;-70
2023/03/24 06:18:55;;;;;;;4.72;1.65;;;11.20;99.90;;;;;;4988849;28;20221;-69
2023/03/24 06:21:29;;;;;;;1.73;1.13;;;11.20;99.90;;;;;;5004331;28;20244;-69
2023/03/24 06:23:57;;;;;;;2.45;1.45;;;11.20;99.90;;;;;;4992176;28;20398;-69
2023/03/24 06:26:29;;;;;;;2.60;1.33;;;11.20;99.90;;;;;;5011224;28;20225;-69
2023/03/24 06:28:57;;;;;;;4.10;1.58;;;11.10;99.90;;;;;;5001883;28;20287;-69
2023/03/24 06:31:26;;;;;;;4.10;1.40;;;11.10;99.90;;;;;;5002191;28;20206;-69
2023/03/24 06:33:53;;;;;;;4.53;1.20;;;11.00;99.90;;;;;;5009794;28;20406;-69
2023/03/24 06:36:22;;;;;;;5.65;1.48;;;11.00;99.90;;;;;;4984317;28;20236;-69
2023/03/24 06:38:49;;;;;;;5.60;1.38;;;11.00;99.90;;;;;;5007372;28;20293;-69
2023/03/24 06:41:16;;;;;;;2.55;1.25;;;11.00;99.90;;;;;;5009802;28;20205;-70
2023/03/24 06:43:44;;;;;;;4.03;1.35;;;10.90;99.90;;;;;;4998768;28;20803;-69
2023/03/24 06:46:11;;;;;;;6.18;1.58;;;10.90;99.90;;;;;;5005863;28;20821;-69
2023/03/24 06:48:38;;;;;;;2.95;1.05;;;11.00;99.90;;;;;;5019529;28;20193;-69
2023/03/24 06:51:06;;;;;;;2.83;1.42;;;11.00;99.90;;;;;;4989948;28;27359;-69
2023/03/24 06:53:33;;;;;;;5.80;1.60;;;11.00;99.90;;;;;;5016927;28;20549;-69
2023/03/24 06:55:59;;;;;;;2.88;1.10;;;11.00;99.90;;;;;;5003507;28;20611;-69
2023/03/24 06:58:26;;;;;;;2.85;1.23;;;11.00;99.90;;;;;;5011155;28;20199;-69
2023/03/24 07:00:55;;;;;;;3.28;1.20;;;10.90;99.90;;;;;;5019946;28;20209;-69
2023/03/24 07:03:22;;;;;;;3.88;1.05;;;10.90;99.90;;;;;;5005501;28;20248;-69
2023/03/24 07:05:49;;;;;;;4.78;1.15;;;10.90;98.70;;;;;;5019428;28;20244;-69
2023/03/24 07:08:16;;;;;;;3.05;1.27;;;10.90;99.00;;;;;;4978622;28;20213;-69
2023/03/24 07:10:43;;;;;;;4.05;1.40;;;10.90;98.70;;;;;;5005676;28;20205;-69
2023/03/24 07:13:10;;;;;;;5.65;1.40;;;10.90;98.70;;;;;;5007198;28;20228;-69
2023/03/24 07:15:37;;;;;;;5.45;1.33;;;11.00;99.90;;;;;;5010232;28;21078;-69
2023/03/24 07:18:05;;;;;;;7.45;1.48;;;11.10;99.90;;;;;;5003278;28;20424;-69
2023/03/24 07:20:32;;;;;;;4.25;1.70;;;11.10;99.90;;;;;;5025944;28;20205;-69
2023/03/24 07:22:59;;;;;;;5.70;1.80;;;11.10;99.90;;;;;;4985793;28;20423;-69
2023/03/24 07:25:26;;;;;;;4.80;1.30;;;11.20;99.90;;;;;;5012438;28;20577;-68
2023/03/24 07:27:54;;;;;;;3.50;1.77;;;11.10;97.60;;;;;;5013172;28;20415;-69
2023/03/24 07:30:21;;;;;;;3.08;1.52;;;11.10;95.60;;;;;;5010856;28;20278;-69
2023/03/24 07:32:48;;;;;;;2.88;1.33;;;11.10;96.40;;;;;;5007931;28;20216;-69
2023/03/24 07:35:17;;;;;;;3.13;1.30;;;11.20;97.30;;;;;;5017027;28;20595;-69
2023/03/24 07:37:44;;;;;;;7.00;1.58;;;11.20;94.60;;;;;;4985383;28;20257;-69
2023/03/24 07:40:13;;;;;;;6.38;1.75;;;11.10;92.20;;;;;;5018458;28;20194;-69
2023/03/24 07:42:41;;;;;;;5.03;1.70;;;11.20;93.00;;;;;;5009522;28;20224;-69
2023/03/24 07:45:09;;;;;;;8.35;1.98;;;11.10;86.30;;;;;;5013069;28;20525;-69
2023/03/24 07:47:37;;;;;;;4.75;2.20;;;11.10;86.60;;;;;;5011496;28;20288;-69
2023/03/24 07:50:08;;;;;;;8.07;2.90;;;11.10;90.30;;;;;;5004104;28;20629;-69
2023/03/24 07:52:37;;;;;;;7.68;2.00;;;11.10;91.00;;;;;;5016547;28;20252;-69
2023/03/24 07:55:04;;;;;;;5.47;1.98;;;11.20;90.00;;;;;;4997355;28;20400;-69
2023/03/24 07:57:34;;;;;;;7.30;1.98;;;11.20;89.50;;;;;;5008455;28;20250;-69
2023/03/24 08:00:00;;;;;;;5.80;1.60;;;11.10;83.00;;;;;;5003967;28;20436;-69
2023/03/24 08:02:27;;;;;;;6.00;2.10;;;11.10;85.30;;;;;;4992376;28;20238;-69
2023/03/24 08:04:55;;;;;;;4.85;1.85;;;11.20;90.10;;;;;;4991855;28;20912;-68
2023/03/24 08:07:23;;;;;;;7.85;2.00;;;11.20;81.30;;;;;;5024555;28;20208;-69
2023/03/24 08:09:51;;;;;;;5.38;2.05;;;11.20;83.70;;;;;;4979790;28;20291;-68
2023/03/24 08:12:18;;;;;;;7.60;1.80;;;11.20;86.50;;;;;;5021068;28;20197;-69
2023/03/24 08:14:45;;;;;;;3.50;2.05;;;11.20;84.00;;;;;;5001541;28;20209;-69
2023/03/24 08:17:12;;;;;;;7.72;2.10;;;11.30;85.60;;;;;;5009134;28;20671;-68
2023/03/24 08:19:38;;;;;;;3.92;2.03;;;11.30;83.20;;;;;;5020175;28;20211;-69
2023/03/24 08:22:06;;;;;;;5.68;1.95;;;11.30;77.00;;;;;;5010348;28;20764;-69
2023/03/24 08:24:33;;;;;;;5.78;1.80;;;11.30;74.60;;;;;;4990955;28;20757;-69
2023/03/24 08:27:05;;;;;;;5.05;2.05;;;11.40;77.80;;;;;;5024238;28;20497;-69
2023/03/24 08:29:33;;;;;;;5.68;1.90;;;11.40;84.20;;;;;;5026965;28;20197;-69
2023/03/24 08:32:00;;;;;;;3.97;1.60;;;11.50;82.90;;;;;;4999990;28;20631;-69
2023/03/24 08:34:27;;;;;;;8.13;2.42;;;11.40;77.00;;;;;;5001090;28;20686;-69
2023/03/24 08:36:53;;;;;;;4.80;2.03;;;11.40;63.60;;;;;;5004449;28;20357;-69
2023/03/24 08:39:20;;;;;;;9.20;2.10;;;11.40;60.20;;;;;;5012476;28;20201;-70
2023/03/24 08:41:48;;;;;;;9.75;2.05;;;11.40;58.80;;;;;;4985598;28;22063;-70
2023/03/24 08:44:17;;;;;;;7.35;2.47;;;11.40;60.10;;;;;;5006710;28;20874;-69
2023/03/24 08:46:44;;;;;;;4.68;1.60;;;11.50;57.60;;;;;;5009720;28;20751;-69
2023/03/24 08:49:10;;;;;;;9.77;1.90;;;11.60;66.10;;;;;;5014432;28;20229;-70
2023/03/24 08:51:37;;;;;;;4.55;1.70;;;11.60;55.00;;;;;;5003845;28;20641;-69
2023/03/24 08:54:05;;;;;;;6.10;2.08;;;11.70;48.50;;;;;;5019953;28;20209;-69
2023/03/24 08:56:31;;;;;;;5.75;2.05;;;11.70;52.20;;;;;;4987425;28;20761;-69
2023/03/24 08:58:58;;;;;;;5.78;1.40;;;11.60;39.40;;;;;;5017829;28;20395;-69
2023/03/24 09:01:27;;;;;;;4.60;1.58;;;11.60;44.20;;;;;;5010717;28;20221;-69
2023/03/24 09:03:53;;;;;;;7.93;2.05;;;11.70;48.20;;;;;;5008974;28;20444;-69
2023/03/24 09:06:20;;;;;;;4.68;1.90;;;11.70;53.90;;;;;;5013764;28;20202;-69
2023/03/24 09:08:47;;;;;;;7.13;1.92;;;11.60;47.40;;;;;;5006612;28;20327;-69
2023/03/24 09:11:16;;;;;;;7.13;2.20;;;11.60;40.00;;;;;;5020065;28;21009;-69
2023/03/24 09:13:43;;;;;;;9.98;1.95;;;11.70;44.00;;;;;;4984877;28;20224;-69
2023/03/24 09:16:10;;;;;;;5.47;1.50;;;11.60;41.40;;;;;;5019646;28;20197;-69
2023/03/24 09:18:38;;;;;;;7.57;2.92;;;11.60;49.90;;;;;;4987636;28;20202;-69
2023/03/24 09:21:06;;;;;;;7.53;1.98;;;11.70;49.60;;;;;;5017332;28;20672;-69
2023/03/24 09:23:33;;;;;;;8.63;2.10;;;11.70;49.80;;;;;;4998719;28;20201;-69
2023/03/24 09:26:00;;;;;;;4.95;1.70;;;11.60;50.70;;;;;;5018719;28;20193;-69
2023/03/24 09:28:27;;;;;;;9.77;1.85;;;11.60;50.90;;;;;;4988347;28;20724;-69
2023/03/24 09:30:57;;;;;;;6.15;1.70;;;11.60;40.40;;;;;;5008973;28;20201;-69
2023/03/24 09:33:25;;;;;;;8.73;1.90;;;11.60;48.30;;;;;;5008887;28;20513;-68
2023/03/24 09:35:55;;;;;;;7.80;1.90;;;11.60;42.00;;;;;;5015070;28;20776;-68
2023/03/24 09:38:23;;;;;;;5.53;2.20;;;11.60;37.80;;;;;;4999180;28;20236;-68
2023/03/24 09:40:56;;;;;;;9.02;2.40;;;11.60;26.80;;;;;;5002041;28;20232;-68
2023/03/24 09:43:30;;;;;;;7.22;1.83;;;11.60;35.30;;;;;;4986041;28;20216;-68
2023/03/24 09:46:01;;;;;;;4.28;1.52;;;11.70;43.70;;;;;;5000097;28;20229;-68
2023/03/24 09:48:35;;;;;;;9.82;2.15;;;11.90;41.40;;;;;;5013802;28;20198;-68
2023/03/24 09:51:06;;;;;;;3.75;1.58;;;12.00;23.30;;;;;;5019666;28;20205;-69
2023/03/24 09:53:40;;;;;;;6.10;1.50;;;12.10;19.20;;;;;;5007543;28;20660;-68
2023/03/24 09:56:13;;;;;;;9.85;2.00;;;12.20;21.50;;;;;;5021545;28;20789;-69
2023/03/24 09:58:41;;;;;;;12.38;1.63;;;12.30;17.10;;;;;;4987545;28;21830;-68
2023/03/24 10:01:13;;;;;;;6.40;2.15;;;12.30;1.00;;;;;;5021080;28;20205;-68
2023/03/24 10:03:41;;;;;;;11.13;2.30;;;12.40;1.00;;;;;;4995689;28;20202;-68
2023/03/24 10:06:13;;;;;;;6.07;1.35;;;12.30;1.00;;;;;;5026846;28;20201;-69
2023/03/24 10:08:43;;;;;;;7.88;1.88;;;12.30;1.00;;;;;;5007581;28;21036;-69
2023/03/24 10:11:20;;;;;;;9.02;1.90;;;12.50;1.00;;;;;;4993890;28;20759;-68
2023/03/24 10:13:56;;;;;;;10.20;2.00;;;12.60;1.00;;;;;;4977868;28;20418;-69
2023/03/24 10:16:30;;;;;;;9.38;2.30;;;12.60;99.90;;;;;;5020095;28;20201;-69
2023/03/24 10:19:04;;;;;;;5.75;1.88;;;12.70;99.90;;;;;;4990464;28;20703;-69
2023/03/24 10:21:37;;;;;;;8.85;2.33;;;12.90;99.90;;;;;;5008872;28;20755;-69
2023/03/24 10:24:10;;;;;;;11.75;2.60;;;12.80;99.90;;;;;;5018214;28;20194;-68
2023/03/24 10:26:47;;;;;;;11.00;2.30;;;12.70;99.90;;;;;;4992411;28;20695;-69
2023/03/24 10:29:22;;;;;;;9.30;2.85;;;12.80;99.90;;;;;;4961641;28;20898;-69
2023/03/24 10:31:53;;;;;;;8.32;2.03;;;12.70;99.90;;;;;;5001800;28;20744;-70
2023/03/24 10:34:21;;;;;;;11.48;1.88;;;12.60;99.90;;;;;;4971952;28;20225;-69
2023/03/24 10:36:51;;;;;;;8.38;2.45;;;12.60;99.90;;;;;;4973592;28;20919;-70
2023/03/24 10:39:17;;;;;;;6.63;1.95;;;12.60;99.90;;;;;;5007409;28;20278;-69
2023/03/24 10:41:44;;;;;;;7.30;2.08;;;12.70;99.90;;;;;;4990979;28;20202;-68
2023/03/24 10:44:12;;;;;;;11.77;2.55;;;12.70;99.90;;;;;;5000180;28;20201;-68
2023/03/24 10:46:46;;;;;;;7.38;1.88;;;12.80;99.90;;;;;;4978410;28;20205;-69
2023/03/24 10:49:17;;;;;;;11.27;2.13;;;13.00;99.90;;;;;;4995806;28;20253;-68
2023/03/24 10:51:49;;;;;;;3.92;1.50;;;13.00;99.90;;;;;;5003447;28;20605;-68
2023/03/24 10:54:19;;;;;;;11.20;2.53;;;12.90;99.90;;;;;;5013913;28;20221;-68
2023/03/24 10:56:49;;;;;;;10.82;2.13;;;12.80;99.90;;;;;;4989636;28;20411;-69
2023/03/24 10:59:21;;;;;;;7.53;2.13;;;12.80;99.90;;;;;;5003025;28;20205;-68
2023/03/24 11:01:48;;;;;;;6.30;2.53;;;12.70;99.90;;;;;;4978764;28;21022;-69
2023/03/24 11:04:18;;;;;;;8.80;2.40;;;12.70;99.90;;;;;;5003370;28;20229;-69
2023/03/24 11:07:01;;;;;;;5.80;1.98;;;12.70;99.90;;;;;;4996261;28;20938;-69
2023/03/24 11:09:28;;;;;;;9.68;1.65;;;12.70;99.90;;;;;;5010033;28;20198;-68
2023/03/24 11:11:57;;;;;;;7.13;1.95;;;12.70;99.90;;;;;;4980681;28;21036;-69
2023/03/24 11:14:26;;;;;;;8.38;1.98;;;12.70;99.90;;;;;;5006898;28;20203;-68
2023/03/24 11:17:01;;;;;;;9.63;2.00;;;12.60;99.90;;;;;;4974815;28;20342;-69
2023/03/24 11:19:31;;;;;;;11.45;1.92;;;12.50;99.90;;;;;;5011631;28;20201;-69
2023/03/24 11:22:02;;;;;;;8.13;2.40;;;12.60;99.90;;;;;;4991641;28;20649;-69
2023/03/24 11:24:30;;;;;;;7.50;2.20;;;12.60;99.90;;;;;;5006463;28;20213;-69
2023/03/24 11:27:00;;;;;;;9.27;2.20;;;12.60;99.90;;;;;;5008769;28;20202;-68
2023/03/24 11:29:29;;;;;;;8.23;1.80;;;12.80;99.90;;;;;;4975284;28;20206;-68
2023/03/24 11:31:57;;;;;;;5.65;2.20;;;12.80;99.90;;;;;;4978035;28;20761;-68
2023/03/24 11:34:33;;;;;;;12.43;2.42;;;13.00;99.90;;;;;;5009449;28;20702;-68
2023/03/24 11:37:03;;;;;;;11.40;2.30;;;13.00;99.90;;;;;;4980925;28;20494;-68
2023/03/24 11:39:33;;;;;;;4.82;1.48;;;13.20;99.90;;;;;;5009419;28;20225;-68
2023/03/24 11:42:03;;;;;;;10.27;2.00;;;13.20;99.90;;;;;;4997824;28;20213;-68
2023/03/24 11:44:40;;;;;;;9.63;1.83;;;13.30;99.90;;;;;;4985116;28;20221;-68
2023/03/24 11:47:12;;;;;;;7.70;2.00;;;13.30;99.90;;;;;;4973197;28;20205;-68
2023/03/24 11:49:45;;;;;;;6.35;2.00;;;13.40;99.90;;;;;;5007333;28;20737;-68
2023/03/24 11:52:22;;;;;;;7.07;2.13;;;13.50;99.90;;;;;;4999764;28;20684;-68
2023/03/24 11:54:48;;;;;;;8.50;1.50;;;13.60;99.90;;;;;;5004737;28;20815;-68
2023/03/24 11:57:22;;;;;;;7.15;2.10;;;13.60;99.90;;;;;;5023587;28;20205;-68
2023/03/24 11:59:56;;;;;;;6.75;1.70;;;13.50;99.90;;;;;;4942506;28;20336;-68
2023/03/24 12:02:30;;;;;;;6.63;1.80;;;13.60;99.90;;;;;;5000514;28;20290;-68
2023/03/24 12:05:09;;;;;;;7.93;2.13;;;13.60;99.90;;;;;;4993609;28;20201;-67
2023/03/24 12:07:58;;;;;;;6.18;1.70;;;13.50;99.90;;;;;;5002849;28;20205;-67
2023/03/24 12:10:38;;;;;;;3.42;1.50;;;13.50;99.90;;;;;;4998624;28;20329;-67
2023/03/24 12:13:09;;;;;;;10.80;1.73;;;13.30;99.90;;;;;;5012333;28;20200;-67
2023/03/24 12:15:48;;;;;;;5.90;1.40;;;13.40;99.90;;;;;;4993039;28;20843;-67
2023/03/24 12:18:36;;;;;;;7.70;2.20;;;13.40;99.90;;;;;;4975467;28;20236;-68
2023/03/24 12:21:13;;;;;;;10.48;1.67;;;13.50;99.90;;;;;;5012044;28;20259;-68
2023/03/24 12:23:50;;;;;;;5.97;1.40;;;13.50;99.90;;;;;;4996570;28;22665;-68
2023/03/24 12:26:21;;;;;;;8.05;2.17;;;13.40;99.90;;;;;;5015656;28;20206;-68
2023/03/24 12:28:55;;;;;;;11.48;1.98;;;13.30;99.90;;;;;;5008472;28;20429;-68
2023/03/24 12:31:53;;;;;;;11.43;2.08;;;13.30;99.90;;;;;;5001301;28;20201;-68
2023/03/24 12:34:41;;;;;;;3.05;1.13;;;13.30;99.90;;;;;;4984000;28;20978;-68
2023/03/24 12:37:14;;;;;;;12.43;1.60;;;13.30;99.90;;;;;;5016891;28;21400;-68
2023/03/24 12:39:52;;;;;;;3.53;1.30;;;13.30;99.90;;;;;;5004912;28;20689;-68
2023/03/24 12:42:22;;;;;;;6.47;1.63;;;13.20;99.90;;;;;;5010382;28;20209;-67
2023/03/24 12:45:09;;;;;;;5.43;1.58;;;13.20;99.90;;;;;;5012184;28;20688;-67
2023/03/24 12:48:12;;;;;;;5.20;1.38;;;13.10;99.90;;;;;;4995915;28;20470;-68
2023/03/24 12:50:50;;;;;;;7.38;1.40;;;12.90;99.90;;;;;;4941642;28;20415;-67
2023/03/24 12:53:35;;;;;;;5.30;1.70;;;12.80;99.90;;;;;;4996422;28;20277;-67
2023/03/24 12:56:10;;;;;;;5.68;1.80;;;12.70;99.90;;;;;;5005156;28;20573;-67
2023/03/24 12:58:42;;;;;;;7.15;1.30;;;12.80;99.90;;;;;;5014798;28;20799;-68
2023/03/24 13:01:18;;;;;;;4.60;1.35;;;12.90;99.90;;;;;;5015227;28;20731;-67
2023/03/24 13:03:47;;;;;;;5.38;2.15;;;13.00;99.90;;;;;;4999330;28;20216;-68
2023/03/24 13:06:20;;;;;;;6.88;2.03;;;13.20;99.90;;;;;;4974682;28;20622;-67